createdAt,value
2022-12-18T00:00:54.516Z,-3.63
2022-12-18T00:02:56.928Z,-3.31
2022-12-18T00:04:58.598Z,-3.75
2022-12-18T00:07:01.544Z,-3.86
2022-12-18T00:09:04.328Z,-3.91
2022-12-18T00:11:07.018Z,-4.24
2022-12-18T00:13:10.173Z,-4.29
2022-12-18T00:15:12.071Z,-4.52
2022-12-18T00:17:13.670Z,-4.73
2022-12-18T00:19:15.913Z,-4.81
2022-12-18T00:21:17.851Z,-4.69
2022-12-18T00:23:20.742Z,-4.87
2022-12-18T00:25:22.379Z,-4.75
2022-12-18T00:27:23.927Z,-4.46
2022-12-18T00:29:25.558Z,-4.45
2022-12-18T00:31:27.272Z,-4.60
2022-12-18T00:33:29.207Z,-4.39
2022-12-18T00:35:30.717Z,-4.42
2022-12-18T00:37:33.885Z,-4.22
2022-12-18T00:39:36.969Z,-4.77
2022-12-18T00:41:38.704Z,-4.56
2022-12-18T00:43:41.139Z,-4.94
2022-12-18T00:45:42.842Z,-4.82
2022-12-18T00:47:44.475Z,-4.36
2022-12-18T00:49:46.016Z,-4.20
2022-12-18T00:51:48.228Z,-4.21
2022-12-18T00:53:49.884Z,-4.37
2022-12-18T00:55:52.842Z,-4.21
2022-12-18T00:57:54.446Z,-4.38
2022-12-18T00:59:56.076Z,-4.09
2022-12-18T01:01:57.745Z,-4.40
2022-12-18T01:04:00.810Z,-4.62
2022-12-18T01:06:07.333Z,-4.89
2022-12-18T01:08:08.996Z,-5.05
2022-12-18T01:10:12.315Z,-4.85
2022-12-18T01:12:15.409Z,-5.02
2022-12-18T01:14:17.014Z,-4.76
2022-12-18T01:16:18.932Z,-4.59
2022-12-18T01:18:20.514Z,-4.59
2022-12-18T01:20:22.059Z,-4.50
2022-12-18T01:22:23.767Z,-4.86
2022-12-18T01:24:25.403Z,-4.59
2022-12-18T01:26:27.823Z,-4.79
2022-12-18T01:28:30.764Z,-4.84
2022-12-18T01:30:32.312Z,-4.84
2022-12-18T01:32:34.073Z,-4.56
2022-12-18T01:34:36.329Z,-4.50
2022-12-18T01:36:39.479Z,-4.53
2022-12-18T01:38:44.074Z,-4.65
2022-12-18T01:40:45.602Z,-4.61
2022-12-18T01:42:53.753Z,-4.59
2022-12-18T01:44:58.639Z,-4.59
2022-12-18T01:47:00.535Z,-4.66
2022-12-18T01:49:02.562Z,-4.85
2022-12-18T01:51:05.626Z,-4.44
2022-12-18T01:53:13.729Z,-4.35
2022-12-18T01:55:19.299Z,-4.22
2022-12-18T01:57:21.168Z,-4.50
2022-12-18T01:59:22.691Z,-4.06
2022-12-18T02:01:26.942Z,-4.17
2022-12-18T02:03:28.599Z,-4.07
2022-12-18T02:05:41.084Z,-4.08
2022-12-18T02:07:52.000Z,-4.18
2022-12-18T02:09:59.962Z,-4.14
2022-12-18T02:12:06.709Z,-4.03
2022-12-18T02:14:19.031Z,-4.13
2022-12-18T02:16:31.139Z,-4.24
2022-12-18T02:18:38.155Z,-4.68
2022-12-18T02:20:46.094Z,-4.68
2022-12-18T02:23:05.420Z,-4.82
2022-12-18T02:25:19.647Z,-4.60
2022-12-18T02:27:22.768Z,-4.43
2022-12-18T02:29:27.000Z,-4.61
2022-12-18T02:31:32.316Z,-4.41
2022-12-18T02:33:36.567Z,-4.35
2022-12-18T02:35:41.017Z,-4.60
2022-12-18T02:37:44.839Z,-4.57
2022-12-18T02:39:49.643Z,-4.69
2022-12-18T02:41:51.695Z,-4.95
2022-12-18T02:43:57.407Z,-4.68
2022-12-18T02:46:00.664Z,-4.85
2022-12-18T02:48:02.348Z,-4.36
2022-12-18T02:50:10.877Z,-4.39
2022-12-18T02:52:25.723Z,-4.25
2022-12-18T02:54:56.363Z,-4.50
2022-12-18T02:57:05.380Z,-4.80
2022-12-18T02:59:14.291Z,-5.04
2022-12-18T03:01:20.702Z,-4.82
2022-12-18T03:03:27.971Z,-4.79
2022-12-18T03:05:34.331Z,-4.83
2022-12-18T03:07:39.890Z,-4.54
2022-12-18T03:09:47.282Z,-4.54
2022-12-18T03:11:55.573Z,-4.10
2022-12-18T03:13:59.409Z,-4.44
2022-12-18T03:16:04.311Z,-4.86
2022-12-18T03:18:11.715Z,-4.56
2022-12-18T03:20:20.930Z,-4.24
2022-12-18T03:22:24.831Z,-4.37
2022-12-18T03:24:28.814Z,-4.23
2022-12-18T03:26:31.018Z,-4.12
2022-12-18T03:28:37.830Z,-4.23
2022-12-18T03:30:42.580Z,-4.70
2022-12-18T03:32:51.488Z,-4.76
2022-12-18T03:34:56.822Z,-4.38
2022-12-18T03:37:03.668Z,-4.72
2022-12-18T03:39:05.377Z,-4.66
2022-12-18T03:41:15.684Z,-4.61
2022-12-18T03:43:26.488Z,-4.81
2022-12-18T03:45:35.197Z,-4.65
2022-12-18T03:47:48.738Z,-5.09
2022-12-18T03:49:58.871Z,-4.76
2022-12-18T03:52:05.611Z,-4.48
2022-12-18T03:54:09.594Z,-4.55
2022-12-18T03:56:14.392Z,-4.63
2022-12-18T03:58:20.245Z,-4.53
2022-12-18T04:00:21.976Z,-4.26
2022-12-18T04:02:25.408Z,-4.48
2022-12-18T04:04:29.348Z,-4.66
2022-12-18T04:06:32.950Z,-4.73
2022-12-18T04:08:35.420Z,-4.78
2022-12-18T04:10:37.395Z,-4.89
2022-12-18T04:12:39.114Z,-4.77
2022-12-18T04:14:40.874Z,-5.33
2022-12-18T04:16:42.373Z,-4.77
2022-12-18T04:18:43.896Z,-4.81
2022-12-18T04:20:45.498Z,-4.56
2022-12-18T04:22:49.081Z,-4.70
2022-12-18T04:24:50.616Z,-4.91
2022-12-18T04:26:52.221Z,-4.78
2022-12-18T04:28:53.877Z,-5.19
2022-12-18T04:30:55.502Z,-5.32
2022-12-18T04:32:57.203Z,-5.08
2022-12-18T04:34:58.725Z,-4.89
2022-12-18T04:37:00.300Z,-4.92
2022-12-18T04:39:03.407Z,-4.62
2022-12-18T04:41:05.144Z,-4.97
2022-12-18T04:43:06.749Z,-4.99
2022-12-18T04:45:09.333Z,-5.20
2022-12-18T04:47:10.884Z,-5.28
2022-12-18T04:49:12.415Z,-5.08
2022-12-18T04:51:14.258Z,-5.20
2022-12-18T04:53:15.561Z,-5.06
2022-12-18T04:55:18.582Z,-4.65
2022-12-18T04:57:20.101Z,-4.70
2022-12-18T04:59:21.690Z,-4.74
2022-12-18T05:01:23.343Z,-4.66
2022-12-18T05:03:25.087Z,-4.57
2022-12-18T05:05:26.812Z,-5.02
2022-12-18T05:07:28.387Z,-4.92
2022-12-18T05:09:30.514Z,-5.27
2022-12-18T05:11:33.555Z,-5.32
2022-12-18T05:13:36.460Z,-5.42
2022-12-18T05:15:38.272Z,-5.31
2022-12-18T05:17:39.841Z,-4.52
2022-12-18T05:19:41.525Z,-4.59
2022-12-18T05:21:43.092Z,-4.86
2022-12-18T05:23:44.934Z,-4.92
2022-12-18T05:25:48.756Z,-4.66
2022-12-18T05:27:51.799Z,-4.53
2022-12-18T05:29:53.332Z,-4.61
2022-12-18T05:31:54.926Z,-4.78
2022-12-18T05:33:56.527Z,-4.90
2022-12-18T05:35:59.923Z,-4.76
2022-12-18T05:38:01.556Z,-4.74
2022-12-18T05:40:03.534Z,-4.89
2022-12-18T05:42:05.124Z,-4.75
2022-12-18T05:44:08.013Z,-4.79
2022-12-18T05:46:13.784Z,-4.94
2022-12-18T05:48:15.586Z,-4.99
2022-12-18T05:50:22.998Z,-4.97
2022-12-18T05:52:24.816Z,-5.08
2022-12-18T05:54:27.820Z,-4.74
2022-12-18T05:56:29.455Z,-4.36
2022-12-18T05:58:31.925Z,-4.25
2022-12-18T06:00:36.943Z,-4.28
2022-12-18T06:02:38.602Z,-4.52
2022-12-18T06:04:40.165Z,-4.72
2022-12-18T06:06:41.740Z,-4.71
2022-12-18T06:08:46.380Z,-4.71
2022-12-18T06:10:51.812Z,-4.74
2022-12-18T06:12:53.333Z,-5.09
2022-12-18T06:14:54.868Z,-5.21
2022-12-18T06:16:57.775Z,-4.66
2022-12-18T06:19:00.271Z,-4.89
2022-12-18T06:21:02.123Z,-4.78
2022-12-18T06:23:04.385Z,-4.29
2022-12-18T06:25:07.090Z,-4.43
2022-12-18T06:27:09.526Z,-4.52
2022-12-18T06:29:11.071Z,-4.38
2022-12-18T06:31:12.869Z,-4.81
2022-12-18T06:33:15.872Z,-5.01
2022-12-18T06:35:17.780Z,-4.92
2022-12-18T06:37:19.948Z,-4.98
2022-12-18T06:39:21.527Z,-5.07
2022-12-18T06:41:23.088Z,-5.40
2022-12-18T06:43:24.774Z,-5.36
2022-12-18T06:45:26.523Z,-5.31
2022-12-18T06:47:31.794Z,-5.31
2022-12-18T06:49:34.728Z,-5.11
2022-12-18T06:51:36.735Z,-5.06
2022-12-18T06:53:38.734Z,-5.08
2022-12-18T06:55:40.535Z,-5.02
2022-12-18T06:57:43.114Z,-4.80
2022-12-18T06:59:44.638Z,-4.65
2022-12-18T07:01:46.329Z,-4.92
2022-12-18T07:03:52.028Z,-4.91
2022-12-18T07:05:54.991Z,-4.78
2022-12-18T07:07:56.650Z,-4.78
2022-12-18T07:09:58.143Z,-4.84
2022-12-18T07:11:59.837Z,-4.94
2022-12-18T07:14:01.375Z,-5.07
2022-12-18T07:16:17.117Z,-4.76
2022-12-18T07:18:20.267Z,-4.74
2022-12-18T07:20:21.767Z,-4.58
2022-12-18T07:22:26.071Z,-4.69
2022-12-18T07:24:27.706Z,-4.89
2022-12-18T07:26:29.227Z,-4.98
2022-12-18T07:28:30.889Z,-4.74
2022-12-18T07:30:32.487Z,-5.22
2022-12-18T07:32:33.950Z,-4.89
2022-12-18T07:34:35.713Z,-5.19
2022-12-18T07:36:37.540Z,-4.97
2022-12-18T07:38:40.781Z,-4.97
2022-12-18T07:40:42.274Z,-4.76
2022-12-18T07:42:43.863Z,-4.98
2022-12-18T07:44:45.379Z,-5.10
2022-12-18T07:46:46.902Z,-4.91
2022-12-18T07:48:49.273Z,-4.65
2022-12-18T07:50:51.774Z,-4.39
2022-12-18T07:52:53.293Z,-4.33
2022-12-18T07:54:56.175Z,-4.40
2022-12-18T07:56:57.676Z,-4.52
2022-12-18T07:59:00.110Z,-4.81
2022-12-18T08:01:06.236Z,-4.82
2022-12-18T08:03:07.929Z,-4.97
2022-12-18T08:05:09.921Z,-4.73
2022-12-18T08:07:11.425Z,-4.80
2022-12-18T08:09:13.068Z,-4.90
2022-12-18T08:11:15.960Z,-4.46
2022-12-18T08:13:17.783Z,-4.51
2022-12-18T08:15:19.119Z,-4.70
2022-12-18T08:17:21.067Z,-4.22
2022-12-18T08:19:22.667Z,-4.03
2022-12-18T08:21:26.407Z,-3.81
2022-12-18T08:23:39.299Z,-3.89
2022-12-18T08:25:43.858Z,-3.87
2022-12-18T08:27:46.737Z,-4.18
2022-12-18T08:29:48.239Z,-4.25
2022-12-18T08:31:49.875Z,-4.18
2022-12-18T08:33:52.576Z,-4.22
2022-12-18T08:35:54.107Z,-4.58
2022-12-18T08:37:55.657Z,-4.88
2022-12-18T08:39:57.301Z,-4.79
2022-12-18T08:41:58.969Z,-4.44
2022-12-18T08:44:02.181Z,-4.18
2022-12-18T08:46:03.900Z,-4.22
2022-12-18T08:48:05.974Z,-3.98
2022-12-18T08:50:08.083Z,-3.82
2022-12-18T08:52:09.626Z,-3.71
2022-12-18T08:54:12.921Z,-3.66
2022-12-18T08:56:15.433Z,-3.90
2022-12-18T08:58:17.005Z,-4.22
2022-12-18T09:00:20.165Z,-4.05
2022-12-18T09:02:21.912Z,-3.96
2022-12-18T09:04:23.521Z,-3.99
2022-12-18T09:06:25.152Z,-3.85
2022-12-18T09:08:26.687Z,-3.84
2022-12-18T09:10:28.434Z,-3.78
2022-12-18T09:12:30.224Z,-3.58
2022-12-18T09:14:32.045Z,-3.86
2022-12-18T09:16:35.413Z,-3.46
2022-12-18T09:18:37.304Z,-3.40
2022-12-18T09:20:39.759Z,-3.59
2022-12-18T09:22:41.640Z,-3.40
2022-12-18T09:24:43.201Z,-3.37
2022-12-18T09:26:47.411Z,-3.35
2022-12-18T09:28:49.410Z,-3.22
2022-12-18T09:30:50.893Z,-3.40
2022-12-18T09:32:54.317Z,-3.29
2022-12-18T09:34:55.929Z,-3.30
2022-12-18T09:36:57.790Z,-3.94
2022-12-18T09:39:01.665Z,-3.41
2022-12-18T09:41:26.770Z,-3.41
2022-12-18T09:43:34.210Z,-3.41
2022-12-18T09:45:41.776Z,-3.64
2022-12-18T09:47:53.451Z,-3.31
2022-12-18T09:50:02.026Z,-3.76
2022-12-18T09:52:09.594Z,-3.17
2022-12-18T09:54:18.555Z,-3.20
2022-12-18T09:56:22.268Z,-2.80
2022-12-18T09:58:30.488Z,-2.79
2022-12-18T10:00:32.100Z,-2.96
2022-12-18T10:02:33.827Z,-3.13
2022-12-18T10:04:35.645Z,-2.92
2022-12-18T10:06:45.702Z,-3.22
2022-12-18T10:08:55.282Z,-2.96
2022-12-18T10:11:02.137Z,-3.29
2022-12-18T10:13:12.973Z,-3.27
2022-12-18T10:15:21.345Z,-2.64
2022-12-18T10:17:36.403Z,-2.34
2022-12-18T10:19:42.102Z,-2.33
2022-12-18T10:21:52.278Z,-2.33
2022-12-18T10:24:05.017Z,-2.11
2022-12-18T10:26:08.185Z,-2.30
2022-12-18T10:28:13.645Z,-2.28
2022-12-18T10:30:23.465Z,-2.68
2022-12-18T10:32:27.240Z,-2.67
2022-12-18T10:34:28.817Z,-2.76
2022-12-18T10:36:31.850Z,-2.72
2022-12-18T10:38:35.504Z,-2.74
2022-12-18T10:40:51.280Z,-2.97
2022-12-18T10:43:05.347Z,-3.08
2022-12-18T10:45:15.237Z,-3.19
2022-12-18T10:47:20.003Z,-2.92
2022-12-18T10:49:27.532Z,-2.92
2022-12-18T10:51:33.750Z,-2.83
2022-12-18T10:53:37.932Z,-3.13
2022-12-18T10:55:45.354Z,-3.14
2022-12-18T10:57:46.925Z,-2.87
2022-12-18T10:59:53.386Z,-3.06
2022-12-18T11:01:56.822Z,-2.93
2022-12-18T11:04:08.523Z,-2.52
2022-12-18T11:06:12.857Z,-2.70
2022-12-18T11:08:22.215Z,-3.09
2022-12-18T11:10:30.830Z,-2.88
2022-12-18T11:12:32.375Z,-2.94
2022-12-18T11:14:46.724Z,-2.82
2022-12-18T11:17:24.200Z,-2.41
2022-12-18T11:19:22.373Z,-2.81
2022-12-18T11:21:24.474Z,-2.96
2022-12-18T11:23:27.441Z,-2.87
2022-12-18T11:25:34.654Z,-2.65
2022-12-18T11:27:38.649Z,-2.79
2022-12-18T11:29:46.417Z,-2.77
2022-12-18T11:31:48.349Z,-2.89
2022-12-18T11:34:26.822Z,-2.86
2022-12-18T11:36:16.566Z,-2.79
2022-12-18T11:38:23.402Z,-3.15
2022-12-18T11:40:31.041Z,-3.01
2022-12-18T11:42:39.383Z,-2.88
2022-12-18T11:44:49.150Z,-2.94
2022-12-18T11:46:56.108Z,-2.99
2022-12-18T11:49:02.295Z,-2.87
2022-12-18T11:51:10.389Z,-2.74
2022-12-18T11:53:12.863Z,-2.63
2022-12-18T11:55:16.475Z,-2.58
2022-12-18T11:57:32.907Z,-2.53
2022-12-18T11:59:44.711Z,-2.80
2022-12-18T12:01:52.585Z,-2.85
2022-12-18T12:04:22.159Z,-2.78
2022-12-18T12:06:32.363Z,-2.44
2022-12-18T12:08:50.091Z,-2.61
2022-12-18T12:11:03.140Z,-2.21
2022-12-18T12:13:39.413Z,-2.34
2022-12-18T12:15:55.067Z,-2.24
2022-12-18T12:18:11.065Z,-2.15
2022-12-18T12:20:21.219Z,-2.05
2022-12-18T12:22:32.407Z,-1.95
2022-12-18T12:24:46.014Z,-1.72
2022-12-18T12:26:56.647Z,-2.26
2022-12-18T12:29:09.205Z,-2.09
2022-12-18T12:31:26.920Z,-2.04
2022-12-18T12:33:38.570Z,-1.91
2022-12-18T12:35:48.564Z,-2.05
2022-12-18T12:38:02.456Z,-1.86
2022-12-18T12:40:26.836Z,-2.12
2022-12-18T12:42:33.726Z,-2.33
2022-12-18T12:44:44.155Z,-1.54
2022-12-18T12:46:49.521Z,-1.51
2022-12-18T12:48:54.685Z,-1.61
2022-12-18T12:50:57.826Z,-1.40
2022-12-18T12:53:01.706Z,-1.40
2022-12-18T12:55:13.082Z,-1.57
2022-12-18T12:57:20.512Z,-1.55
2022-12-18T12:59:32.907Z,-1.40
2022-12-18T13:01:42.629Z,-1.63
2022-12-18T13:04:02.362Z,-1.98
2022-12-18T13:06:12.346Z,-2.29
2022-12-18T13:08:24.444Z,-2.04
2022-12-18T13:10:33.498Z,-1.73
2022-12-18T13:12:35.413Z,-1.67
2022-12-18T13:14:39.355Z,-2.10
2022-12-18T13:16:41.028Z,-1.97
2022-12-18T13:18:52.454Z,-2.20
2022-12-18T13:21:20.330Z,-2.05
2022-12-18T13:23:31.821Z,-2.16
2022-12-18T13:25:36.370Z,-2.15
2022-12-18T13:28:05.014Z,-2.11
2022-12-18T13:30:57.751Z,-2.12
2022-12-18T13:34:02.101Z,-2.28
2022-12-18T13:36:14.914Z,-1.86
2022-12-18T13:38:22.827Z,-1.81
2022-12-18T13:40:56.620Z,-2.72
2022-12-18T13:42:59.044Z,-2.43
2022-12-18T13:45:01.137Z,-2.85
2022-12-18T13:47:04.336Z,-2.85
2022-12-18T13:49:18.310Z,-2.70
2022-12-18T13:51:22.429Z,-2.75
2022-12-18T13:53:27.251Z,-3.27
2022-12-18T13:55:29.580Z,-3.61
2022-12-18T13:57:34.016Z,-3.53
2022-12-18T13:59:36.850Z,-3.18
2022-12-18T14:01:43.468Z,-3.18
2022-12-18T14:03:45.090Z,-2.92
2022-12-18T14:05:55.935Z,-2.71
2022-12-18T14:08:02.644Z,-3.05
2022-12-18T14:10:42.199Z,-3.42
2022-12-18T14:12:28.740Z,-3.48
2022-12-18T14:14:33.566Z,-3.34
2022-12-18T14:16:35.967Z,-3.44
2022-12-18T14:18:45.242Z,-3.63
2022-12-18T14:20:52.827Z,-3.42
2022-12-18T14:22:55.422Z,-3.40
2022-12-18T14:25:19.113Z,-3.35
2022-12-18T14:27:24.250Z,-3.43
2022-12-18T14:29:27.715Z,-3.75
2022-12-18T14:31:31.979Z,-3.32
2022-12-18T14:33:33.722Z,-3.23
2022-12-18T14:35:37.209Z,-3.14
2022-12-18T14:37:39.986Z,-3.10
2022-12-18T14:39:41.678Z,-3.27
2022-12-18T14:41:44.574Z,-3.22
2022-12-18T14:43:47.688Z,-3.16
2022-12-18T14:45:49.726Z,-3.22
2022-12-18T14:47:51.424Z,-3.24
2022-12-18T14:49:53.045Z,-3.21
2022-12-18T14:51:56.058Z,-3.40
2022-12-18T14:54:00.264Z,-3.25
2022-12-18T14:56:11.183Z,-3.85
2022-12-18T14:58:16.262Z,-3.71
2022-12-18T15:00:20.915Z,-3.86
2022-12-18T15:02:25.017Z,-3.82
2022-12-18T15:04:29.344Z,-3.71
2022-12-18T15:06:33.865Z,-3.60
2022-12-18T15:08:37.686Z,-3.86
2022-12-18T15:10:48.453Z,-4.08
2022-12-18T15:12:51.246Z,-4.06
2022-12-18T15:14:54.282Z,-3.95
2022-12-18T15:16:57.287Z,-3.84
2022-12-18T15:18:58.870Z,-3.95
2022-12-18T15:21:09.294Z,-3.95
2022-12-18T15:23:15.782Z,-4.01
2022-12-18T15:25:30.274Z,-3.74
2022-12-18T15:27:33.764Z,-3.88
2022-12-18T15:29:35.341Z,-4.03
2022-12-18T15:31:38.230Z,-4.10
2022-12-18T15:33:41.956Z,-3.98
2022-12-18T15:35:47.181Z,-4.14
2022-12-18T15:37:49.597Z,-4.36
2022-12-18T15:39:51.067Z,-4.41
2022-12-18T15:41:52.888Z,-4.27
2022-12-18T15:43:54.624Z,-4.56
2022-12-18T15:45:56.251Z,-4.47
2022-12-18T15:47:59.608Z,-4.45
2022-12-18T15:50:01.255Z,-4.21
2022-12-18T15:52:03.362Z,-4.29
2022-12-18T15:54:09.880Z,-4.21
2022-12-18T15:56:12.159Z,-4.02
2022-12-18T15:58:14.480Z,-4.02
2022-12-18T16:00:18.335Z,-4.08
2022-12-18T16:02:21.012Z,-4.13
2022-12-18T16:04:24.035Z,-4.23
2022-12-18T16:06:25.606Z,-4.19
2022-12-18T16:08:27.166Z,-4.00
2022-12-18T16:10:29.251Z,-4.16
2022-12-18T16:12:31.003Z,-4.42
2022-12-18T16:14:33.401Z,-4.31
2022-12-18T16:16:35.157Z,-4.32
2022-12-18T16:18:36.723Z,-4.16
2022-12-18T16:20:40.176Z,-4.27
2022-12-18T16:22:42.593Z,-4.39
2022-12-18T16:24:44.254Z,-4.03
2022-12-18T16:26:46.243Z,-3.92
2022-12-18T16:28:48.653Z,-4.03
2022-12-18T16:30:50.323Z,-3.97
2022-12-18T16:32:51.999Z,-3.88
2022-12-18T16:34:53.566Z,-3.82
2022-12-18T16:37:03.339Z,-4.05
2022-12-18T16:39:07.027Z,-4.03
2022-12-18T16:41:18.890Z,-4.11
2022-12-18T16:43:20.509Z,-3.96
2022-12-18T16:45:23.420Z,-3.96
2022-12-18T16:47:24.981Z,-4.02
2022-12-18T16:49:26.526Z,-4.21
2022-12-18T16:51:28.655Z,-4.16
2022-12-18T16:53:32.722Z,-4.12
2022-12-18T16:55:34.846Z,-4.26
2022-12-18T16:57:36.483Z,-4.18
2022-12-18T16:59:38.060Z,-4.36
2022-12-18T17:01:39.963Z,-4.02
2022-12-18T17:03:41.921Z,-3.91
2022-12-18T17:05:51.507Z,-3.94
2022-12-18T17:07:54.641Z,-4.15
2022-12-18T17:09:57.607Z,-4.15
2022-12-18T17:12:02.339Z,-4.07
2022-12-18T17:14:07.065Z,-3.93
2022-12-18T17:16:09.764Z,-3.96
2022-12-18T17:18:11.479Z,-4.12
2022-12-18T17:20:13.166Z,-4.10
2022-12-18T17:22:14.751Z,-4.39
2022-12-18T17:24:16.655Z,-4.32
2022-12-18T17:26:20.524Z,-4.34
2022-12-18T17:28:22.104Z,-4.16
2022-12-18T17:30:23.643Z,-4.03
2022-12-18T17:32:25.191Z,-4.23
2022-12-18T17:34:26.810Z,-4.43
2022-12-18T17:36:28.376Z,-4.31
2022-12-18T17:38:30.178Z,-4.11
2022-12-18T17:40:33.388Z,-4.22
2022-12-18T17:42:36.659Z,-4.18
2022-12-18T17:44:38.274Z,-4.17
2022-12-18T17:46:39.917Z,-4.21
2022-12-18T17:48:41.699Z,-4.01
2022-12-18T17:50:43.340Z,-3.94
2022-12-18T17:52:44.895Z,-3.93
2022-12-18T17:54:46.529Z,-3.89
2022-12-18T17:56:48.922Z,-3.96
2022-12-18T17:58:51.995Z,-4.04
2022-12-18T18:00:53.855Z,-4.08
2022-12-18T18:02:55.399Z,-4.14
2022-12-18T18:04:57.115Z,-4.05
2022-12-18T18:06:58.729Z,-4.18
2022-12-18T18:09:00.327Z,-4.50
2022-12-18T18:11:05.050Z,-4.11
2022-12-18T18:13:17.447Z,-4.25
2022-12-18T18:15:20.411Z,-4.18
2022-12-18T18:17:21.969Z,-4.32
2022-12-18T18:19:24.870Z,-4.54
2022-12-18T18:21:26.950Z,-4.36
2022-12-18T18:23:28.897Z,-4.47
2022-12-18T18:25:30.579Z,-4.49
2022-12-18T18:27:38.248Z,-4.68
2022-12-18T18:29:40.311Z,-4.38
2022-12-18T18:31:43.277Z,-4.41
2022-12-18T18:33:45.039Z,-4.25
2022-12-18T18:35:54.763Z,-4.35
2022-12-18T18:37:56.512Z,-4.33
2022-12-18T18:39:58.326Z,-4.33
2022-12-18T18:41:59.932Z,-4.44
2022-12-18T18:44:01.713Z,-4.32
2022-12-18T18:46:05.285Z,-4.46
2022-12-18T18:48:08.298Z,-4.58
2022-12-18T18:50:10.212Z,-4.59
2022-12-18T18:52:11.547Z,-4.64
2022-12-18T18:54:13.066Z,-4.64
2022-12-18T18:56:45.336Z,-4.53
2022-12-18T18:58:38.404Z,-4.61
2022-12-18T19:00:39.822Z,-4.95
2022-12-18T19:02:41.729Z,-4.87
2022-12-18T19:04:46.279Z,-4.68
2022-12-18T19:06:48.568Z,-4.66
2022-12-18T19:08:51.140Z,-4.62
2022-12-18T19:10:57.678Z,-4.72
2022-12-18T19:12:59.626Z,-5.05
2022-12-18T19:15:01.356Z,-4.77
2022-12-18T19:17:03.382Z,-4.84
2022-12-18T19:19:06.232Z,-4.90
2022-12-18T19:21:10.755Z,-4.86
2022-12-18T19:23:12.300Z,-5.05
2022-12-18T19:25:13.908Z,-4.74
2022-12-18T19:27:15.454Z,-4.63
2022-12-18T19:29:17.080Z,-4.55
2022-12-18T19:31:24.443Z,-4.43
2022-12-18T19:33:43.254Z,-4.48
2022-12-18T19:35:45.391Z,-4.36
2022-12-18T19:37:48.464Z,-4.10
2022-12-18T19:39:50.279Z,-4.14
2022-12-18T19:41:51.913Z,-4.35
2022-12-18T19:43:53.880Z,-4.35
2022-12-18T19:45:56.220Z,-4.34
2022-12-18T19:48:02.624Z,-4.61
2022-12-18T19:50:07.404Z,-4.58
2022-12-18T19:52:09.420Z,-4.65
2022-12-18T19:54:16.655Z,-4.87
2022-12-18T19:56:21.611Z,-4.76
2022-12-18T19:58:23.124Z,-4.81
2022-12-18T20:00:26.357Z,-4.63
2022-12-18T20:02:28.193Z,-4.62
2022-12-18T20:04:30.070Z,-4.80
2022-12-18T20:06:34.398Z,-4.54
2022-12-18T20:08:36.000Z,-4.61
2022-12-18T20:10:39.079Z,-4.49
2022-12-18T20:12:40.693Z,-4.39
2022-12-18T20:14:42.199Z,-4.64
2022-12-18T20:16:44.469Z,-4.38
2022-12-18T20:18:46.707Z,-4.44
2022-12-18T20:20:48.655Z,-4.45
2022-12-18T20:22:52.296Z,-4.44
2022-12-18T20:24:53.950Z,-4.61
2022-12-18T20:26:57.304Z,-4.91
2022-12-18T20:28:59.767Z,-4.54
2022-12-18T20:31:01.583Z,-4.32
2022-12-18T20:33:03.548Z,-4.56
2022-12-18T20:35:05.279Z,-4.46
2022-12-18T20:37:07.140Z,-4.41
2022-12-18T20:39:08.858Z,-4.56
2022-12-18T20:41:15.856Z,-4.53
2022-12-18T20:43:18.995Z,-4.62
2022-12-18T20:45:20.648Z,-4.76
2022-12-18T20:47:22.171Z,-5.08
2022-12-18T20:49:25.589Z,-4.99
2022-12-18T20:51:27.323Z,-5.02
2022-12-18T20:53:29.037Z,-4.82
2022-12-18T20:55:30.871Z,-4.94
2022-12-18T20:57:32.586Z,-4.81
2022-12-18T20:59:35.590Z,-4.76
2022-12-18T21:01:37.421Z,-4.77
2022-12-18T21:03:42.928Z,-4.74
2022-12-18T21:05:44.712Z,-4.79
2022-12-18T21:07:46.392Z,-4.90
2022-12-18T21:09:47.972Z,-5.01
2022-12-18T21:11:49.824Z,-5.06
2022-12-18T21:13:51.520Z,-5.07
2022-12-18T21:15:54.802Z,-4.97
2022-12-18T21:17:56.476Z,-4.77
2022-12-18T21:19:58.224Z,-4.75
2022-12-18T21:21:59.889Z,-4.80
2022-12-18T21:24:01.730Z,-4.91
2022-12-18T21:26:15.966Z,-4.90
2022-12-18T21:28:17.556Z,-4.76
2022-12-18T21:30:19.130Z,-4.75
2022-12-18T21:32:22.421Z,-4.99
2022-12-18T21:34:28.793Z,-4.78
2022-12-18T21:36:31.502Z,-4.74
2022-12-18T21:38:33.477Z,-4.67
2022-12-18T21:40:34.912Z,-4.53
2022-12-18T21:42:38.219Z,-4.47
2022-12-18T21:44:41.980Z,-4.39
2022-12-18T21:46:48.987Z,-4.76
2022-12-18T21:48:56.142Z,-4.54
2022-12-18T21:50:57.809Z,-4.68
2022-12-18T21:52:59.648Z,-4.60
2022-12-18T21:55:07.946Z,-4.51
2022-12-18T21:57:10.775Z,-4.48
2022-12-18T21:59:13.009Z,-4.49
2022-12-18T22:01:15.156Z,-4.18
2022-12-18T22:03:19.245Z,-4.22
2022-12-18T22:05:22.417Z,-4.23
2022-12-18T22:07:23.925Z,-4.02
2022-12-18T22:09:27.485Z,-4.04
2022-12-18T22:11:29.156Z,-4.22
2022-12-18T22:13:30.793Z,-4.18
2022-12-18T22:15:32.868Z,-4.26
2022-12-18T22:17:34.589Z,-4.28
2022-12-18T22:19:42.511Z,-4.42
2022-12-18T22:21:47.541Z,-4.53
2022-12-18T22:23:52.679Z,-4.45
2022-12-18T22:25:54.456Z,-4.68
2022-12-18T22:27:56.068Z,-4.64
2022-12-18T22:29:57.638Z,-4.58
2022-12-18T22:31:59.310Z,-4.62
2022-12-18T22:34:01.023Z,-4.63
2022-12-18T22:36:05.601Z,-4.61
2022-12-18T22:38:09.190Z,-4.69
2022-12-18T22:40:23.721Z,-4.89
2022-12-18T22:42:25.695Z,-4.77
2022-12-18T22:44:27.263Z,-5.19
2022-12-18T22:46:32.663Z,-5.01
2022-12-18T22:48:34.233Z,-5.12
2022-12-18T22:50:35.795Z,-5.05
2022-12-18T22:52:37.385Z,-5.04
2022-12-18T22:54:40.302Z,-4.99
2022-12-18T22:56:42.594Z,-5.00
2022-12-18T22:58:46.998Z,-5.04
2022-12-18T23:00:48.533Z,-4.86
2022-12-18T23:02:54.436Z,-5.08
2022-12-18T23:04:59.362Z,-4.87
2022-12-18T23:07:00.925Z,-4.82
2022-12-18T23:09:02.431Z,-4.71
2022-12-18T23:11:05.748Z,-4.86
2022-12-18T23:13:07.413Z,-4.68
2022-12-18T23:15:09.660Z,-4.69
2022-12-18T23:17:11.274Z,-4.53
2022-12-18T23:19:12.824Z,-4.52
2022-12-18T23:21:17.550Z,-4.97
2022-12-18T23:23:20.142Z,-5.02
2022-12-18T23:25:21.882Z,-5.01
2022-12-18T23:27:24.845Z,-5.05
2022-12-18T23:29:26.712Z,-4.87
2022-12-18T23:31:30.294Z,-4.75
2022-12-18T23:33:31.947Z,-4.88
2022-12-18T23:35:34.437Z,-4.73
2022-12-18T23:37:58.693Z,-4.63
2022-12-18T23:39:57.505Z,-4.74
2022-12-18T23:41:59.089Z,-4.64
2022-12-18T23:44:01.976Z,-4.77
2022-12-18T23:46:09.455Z,-4.70
2022-12-18T23:48:11.262Z,-4.63
2022-12-18T23:50:12.819Z,-4.50
2022-12-18T23:52:14.495Z,-4.48
2022-12-18T23:54:16.301Z,-4.54
2022-12-18T23:56:20.785Z,-4.63
2022-12-18T23:58:22.328Z,-4.67
